Preview of NWS' New Version of Forecast
This preview is not operational and should not be used for support decisions.

Terminal Aerodrome Forecast (TAF)

Issued by National Weather Service (NWS)

                            
000
FTUS46 KSEW 181136
TAFBLI
TAF
KBLI 181136Z 1812/1912 VRB03KT P6SM VCSH BKN035 BKN070
     FM182000 32005KT P6SM BKN050
     FM190100 25004KT P6SM SCT050
     FM190700 18004KT P6SM SCT035
     FM191100 17005KT 6SM BR SCT014=